Churchill Airport
CYYQ : now visible

Airfield :











YOU CAN JOIN US ON...

 
LOGIN :

Register | Disclaimer

   EN    FR    IT 

 









Legend :    VFR   Marginal VFR   IFR   Intensive IFR   Very Intensive IFR
Visi :
Ceiling :
>= 8 km
>= 3000ft
5 to 8 km
1000 to 3000 ft
1500m to 5 km
500 to 1000 ft
800 to 1500m
200 to 500 ft
< 800m
< 200 ft
Symbols :   Thunderstorms  Fog  Heavy snow  Heavy precipitations  Wind > 20 kt






- Airport Elevation : 94 ft
- IATA code : YYQ


CYYQ - Churchill

CURRENT METAR :
  • 110253Z 03016KT 1/2SM FG VV002 10/10 A2925 RMK FG8 SLP908 DENSITY ALT 300FT

EXPIRED METARs :
  • 110227Z 04015KT 1/8SM FG VV002 10/10 A2924 RMK FG8 SLP905 DENSITY ALT 300FT
  • 110211Z 03015KT 1/4SM FG OVC002 10/10 A2924 RMK ST8 SLP904 DENSITY ALT 300FT
  • 110205Z 03014G19KT 3/4SM BR OVC002 10/10 A2924 RMK ST8 SLP904 DENSITY ALT 300FT
  • 110154Z 03016KT 1SM BR OVC002 09/09 A2923 RMK ST8 SLP902 DENSITY ALT 300FT
  • 110108Z 06010KT 3SM -DZ BR OVC002 10/10 A2922 RMK ST8 VIS NW -N 1 1/2 SLP897 DENSITY ALT 400FT
  • 110100Z 06011KT 2SM -RA BR OVC002 10/10 A2922 RMK ST8 VIS VRB 1 1/2 - 2 1/2 SLP897 DENSITY ALT 400FT
  • 110000Z 07013KT 2SM -RA BR OVC002 11/11 A2920 RMK ST8 VIS VRB 1 1/2- 2 1/2 SLP892 DENSITY ALT 500FT

TAF AMD TAF CYYQ
Valid from the 11 at 02:00 until the 12 at 00:00 UTC


110217Z 1102/1124 03015KT 3/4SM -DZ -RA BR OVC002
TEMPO 1102/1104 3SM BR OVC005
FM110400 01015KT 1SM -DZ BR OVC002
TEMPO 1104/1114 3SM BR OVC004
FM111400 02015KT 4SM BR OVC005
TEMPO 1114/1116 P6SM NSW OVC008
FM111600 03012KT P6SM BKN008 BKN060
TEMPO 1116/1120 SCT008
PROB30 1116/1119 BKN005
FM112000 03012KT P6SM SKC RMK NXT FCST BY 110600Z
CZWG FIR / North America



MET'MAP, your aeronautical weather chart ! - Copyright ORBIFLY December 2007 - Disclaimer

ORBIFLY MET'MAP TEAM :

Programming & Development : Alexandra Zaïnal
Concept & original design : Baudouin d'Aumeries
Assistance for programming : Marc-Olivier Méhu
Technical & hardware support : Manuel Goepfert

Contact : metmap@orbifly.com




SOURCES & CREDITS :

   NOAA       Earth
Advisory